createdAt,value
2023-05-23T00:01:18.523Z,41.83
2023-05-23T00:03:45.331Z,42.06
2023-05-23T00:06:11.997Z,42.00
2023-05-23T00:08:38.610Z,42.26
2023-05-23T00:11:05.297Z,42.06
2023-05-23T00:13:34.804Z,42.14
2023-05-23T00:16:02.570Z,41.84
2023-05-23T00:18:30.650Z,42.01
2023-05-23T00:20:57.541Z,41.81
2023-05-23T00:23:25.392Z,41.85
2023-05-23T00:25:53.506Z,42.09
2023-05-23T00:28:20.864Z,42.00
2023-05-23T00:30:49.280Z,42.10
2023-05-23T00:33:17.296Z,42.03
2023-05-23T00:35:43.962Z,41.96
2023-05-23T00:38:11.612Z,41.98
2023-05-23T00:40:38.438Z,41.92
2023-05-23T00:43:05.014Z,41.81
2023-05-23T00:45:31.764Z,41.81
2023-05-23T00:48:00.315Z,42.11
2023-05-23T00:50:29.794Z,41.84
2023-05-23T00:52:57.882Z,41.87
2023-05-23T00:55:25.480Z,41.98
2023-05-23T00:57:57.066Z,41.92
2023-05-23T01:00:25.286Z,41.87
2023-05-23T01:02:52.427Z,41.92
2023-05-23T01:05:22.577Z,41.82
2023-05-23T01:07:51.107Z,42.00
2023-05-23T01:10:20.951Z,41.96
2023-05-23T01:13:08.771Z,41.97
2023-05-23T01:15:45.691Z,41.97
2023-05-23T01:18:26.933Z,41.94
2023-05-23T01:20:57.045Z,41.75
2023-05-23T01:23:44.861Z,42.10
2023-05-23T01:26:23.428Z,42.16
2023-05-23T01:28:54.848Z,41.88
2023-05-23T01:31:24.614Z,42.01
2023-05-23T01:33:53.467Z,41.91
2023-05-23T01:36:20.946Z,41.86
2023-05-23T01:38:47.537Z,41.87
2023-05-23T01:41:14.094Z,41.98
2023-05-23T01:43:40.672Z,42.02
2023-05-23T01:46:08.087Z,41.90
2023-05-23T01:48:35.454Z,42.00
2023-05-23T01:51:02.424Z,41.75
2023-05-23T01:53:30.764Z,42.01
2023-05-23T01:55:58.769Z,41.76
2023-05-23T01:58:25.924Z,41.81
2023-05-23T02:00:52.610Z,41.92
2023-05-23T02:03:19.717Z,41.82
2023-05-23T02:05:46.444Z,41.81
2023-05-23T02:08:13.067Z,41.92
2023-05-23T02:10:39.707Z,41.87
2023-05-23T02:13:06.248Z,41.92
2023-05-23T02:15:32.761Z,41.84
2023-05-23T02:17:59.428Z,41.86
2023-05-23T02:20:26.745Z,41.88
2023-05-23T02:22:53.280Z,41.82
2023-05-23T02:25:19.811Z,41.94
2023-05-23T02:27:46.309Z,41.82
2023-05-23T02:30:13.302Z,42.02
2023-05-23T02:32:39.880Z,41.71
2023-05-23T02:35:06.812Z,41.82
2023-05-23T02:37:33.385Z,41.74
2023-05-23T02:39:59.942Z,41.71
2023-05-23T02:42:26.603Z,41.95
2023-05-23T02:44:53.628Z,41.83
2023-05-23T02:47:20.312Z,41.86
2023-05-23T02:49:48.447Z,41.54
2023-05-23T02:52:15.493Z,41.70
2023-05-23T02:54:42.068Z,41.77
2023-05-23T02:57:08.638Z,41.71
2023-05-23T02:59:37.996Z,41.69
2023-05-23T03:02:04.713Z,41.25
2023-05-23T03:04:31.316Z,41.79
2023-05-23T03:06:59.611Z,41.60
2023-05-23T03:09:26.730Z,41.70
2023-05-23T03:11:53.319Z,41.76
2023-05-23T03:14:19.925Z,41.73
2023-05-23T03:16:46.662Z,41.67
2023-05-23T03:19:13.446Z,41.66
2023-05-23T03:21:40.915Z,41.78
2023-05-23T03:24:07.697Z,41.65
2023-05-23T03:26:34.250Z,41.54
2023-05-23T03:29:00.803Z,41.50
2023-05-23T03:31:27.384Z,41.67
2023-05-23T03:33:54.112Z,41.80
2023-05-23T03:36:21.936Z,41.75
2023-05-23T03:38:48.679Z,41.49
2023-05-23T03:41:15.315Z,41.81
2023-05-23T03:43:42.236Z,41.63
2023-05-23T03:46:08.940Z,41.56
2023-05-23T03:48:35.643Z,41.80
2023-05-23T03:51:02.689Z,41.62
2023-05-23T03:53:30.582Z,41.63
2023-05-23T03:55:57.140Z,41.10
2023-05-23T03:58:23.898Z,41.63
2023-05-23T04:00:55.004Z,41.60
2023-05-23T04:03:21.728Z,41.62
2023-05-23T04:05:50.129Z,41.45
2023-05-23T04:08:17.477Z,41.61
2023-05-23T04:10:44.356Z,41.69
2023-05-23T04:13:11.096Z,41.43
2023-05-23T04:15:37.788Z,41.68
2023-05-23T04:18:09.188Z,41.61
2023-05-23T04:20:36.448Z,41.57
2023-05-23T04:23:05.070Z,41.66
2023-05-23T04:25:34.891Z,41.46
2023-05-23T04:28:06.646Z,41.95
2023-05-23T04:30:33.396Z,41.74
2023-05-23T04:33:00.308Z,41.69
2023-05-23T04:35:28.730Z,41.63
2023-05-23T04:37:56.784Z,41.63
2023-05-23T04:40:25.619Z,41.60
2023-05-23T04:43:05.022Z,41.80
2023-05-23T04:45:42.496Z,41.41
2023-05-23T04:48:31.261Z,41.60
2023-05-23T04:51:02.178Z,41.93
2023-05-23T04:53:29.606Z,41.63
2023-05-23T04:55:57.624Z,41.41
2023-05-23T04:58:24.423Z,41.61
2023-05-23T05:00:55.019Z,41.47
2023-05-23T05:03:21.722Z,41.66
2023-05-23T05:05:48.490Z,41.48
2023-05-23T05:08:15.671Z,41.61
2023-05-23T05:10:43.092Z,41.76
2023-05-23T05:13:11.121Z,41.37
2023-05-23T05:15:43.977Z,41.53
2023-05-23T05:18:12.260Z,41.52
2023-05-23T05:20:39.978Z,41.64
2023-05-23T05:23:08.517Z,41.76
2023-05-23T05:25:36.369Z,41.59
2023-05-23T05:28:06.087Z,41.65
2023-05-23T05:30:37.473Z,41.58
2023-05-23T05:33:06.050Z,41.32
2023-05-23T05:35:33.181Z,41.49
2023-05-23T05:38:00.668Z,41.56
2023-05-23T05:40:27.246Z,41.48
2023-05-23T05:42:53.809Z,41.76
2023-05-23T05:45:22.011Z,41.41
2023-05-23T05:47:49.209Z,41.58
2023-05-23T05:50:20.247Z,41.65
2023-05-23T05:52:46.830Z,41.54
2023-05-23T05:55:13.473Z,41.36
2023-05-23T05:57:44.965Z,41.53
2023-05-23T06:00:18.941Z,41.39
2023-05-23T06:02:51.407Z,41.30
2023-05-23T06:05:28.702Z,41.42
2023-05-23T06:07:55.409Z,41.20
2023-05-23T06:10:22.036Z,41.54
2023-05-23T06:12:50.461Z,41.31
2023-05-23T06:15:17.642Z,41.45
2023-05-23T06:17:45.338Z,41.51
2023-05-23T06:20:12.320Z,41.41
2023-05-23T06:22:42.471Z,41.32
2023-05-23T06:25:10.402Z,41.53
2023-05-23T06:27:38.062Z,41.54
2023-05-23T06:30:05.973Z,41.65
2023-05-23T06:32:32.601Z,41.36
2023-05-23T06:34:59.166Z,41.36
2023-05-23T06:37:26.689Z,41.51
2023-05-23T06:39:53.196Z,41.64
2023-05-23T06:42:19.710Z,41.30
2023-05-23T06:44:56.462Z,41.57
2023-05-23T06:47:24.023Z,41.53
2023-05-23T06:49:50.597Z,41.42
2023-05-23T06:52:17.192Z,41.44
2023-05-23T06:54:43.856Z,41.63
2023-05-23T06:57:10.446Z,41.46
2023-05-23T06:59:37.289Z,41.10
2023-05-23T07:02:04.824Z,41.52
2023-05-23T07:04:31.389Z,41.40
2023-05-23T07:07:02.661Z,41.52
2023-05-23T07:09:29.167Z,41.45
2023-05-23T07:12:06.893Z,41.34
2023-05-23T07:14:38.125Z,41.59
2023-05-23T07:17:05.842Z,41.64
2023-05-23T07:19:34.272Z,41.63
2023-05-23T07:22:01.029Z,41.36
2023-05-23T07:24:29.452Z,41.40
2023-05-23T07:26:56.976Z,41.69
2023-05-23T07:29:24.912Z,41.35
2023-05-23T07:31:53.758Z,41.37
2023-05-23T07:34:22.107Z,41.17
2023-05-23T07:36:55.475Z,41.59
2023-05-23T07:39:24.635Z,41.54
2023-05-23T07:41:53.090Z,41.23
2023-05-23T07:44:22.297Z,41.29
2023-05-23T07:46:50.791Z,41.31
2023-05-23T07:49:17.584Z,41.23
2023-05-23T07:51:44.131Z,41.44
2023-05-23T07:54:10.776Z,41.73
2023-05-23T07:56:40.178Z,41.20
2023-05-23T07:59:08.702Z,41.34
2023-05-23T08:01:35.578Z,41.55
2023-05-23T08:04:04.605Z,41.30
2023-05-23T08:06:34.920Z,41.56
2023-05-23T08:09:06.656Z,41.57
2023-05-23T08:11:36.186Z,41.10
2023-05-23T08:14:03.131Z,41.39
2023-05-23T08:16:38.523Z,41.28
2023-05-23T08:19:16.395Z,41.50
2023-05-23T08:21:43.973Z,41.34
2023-05-23T08:24:11.722Z,41.45
2023-05-23T08:26:40.336Z,41.30
2023-05-23T08:29:10.506Z,41.34
2023-05-23T08:31:37.762Z,41.09
2023-05-23T08:34:06.594Z,41.20
2023-05-23T08:36:36.354Z,41.03
2023-05-23T08:39:04.035Z,41.19
2023-05-23T08:41:35.418Z,41.54
2023-05-23T08:44:06.282Z,41.10
2023-05-23T08:46:46.652Z,41.11
2023-05-23T08:49:22.711Z,41.22
2023-05-23T08:51:54.303Z,41.23
2023-05-23T08:54:22.366Z,41.08
2023-05-23T08:56:49.329Z,41.15
2023-05-23T08:59:16.521Z,41.15
2023-05-23T09:01:44.161Z,41.27
2023-05-23T09:04:12.535Z,41.05
2023-05-23T09:06:49.614Z,41.08
2023-05-23T09:09:17.348Z,40.97
2023-05-23T09:11:45.996Z,41.16
2023-05-23T09:14:14.673Z,40.72
2023-05-23T09:16:47.620Z,41.07
2023-05-23T09:19:15.596Z,41.05
2023-05-23T09:21:50.734Z,41.09
2023-05-23T09:24:37.028Z,41.07
2023-05-23T09:27:07.285Z,41.36
2023-05-23T09:29:39.942Z,41.00
2023-05-23T09:32:14.186Z,40.97
2023-05-23T09:34:42.831Z,41.03
2023-05-23T09:37:13.507Z,40.90
2023-05-23T09:39:40.080Z,40.82
2023-05-23T09:42:06.958Z,40.79
2023-05-23T09:44:42.193Z,40.83
2023-05-23T09:47:09.333Z,40.52
2023-05-23T09:49:39.262Z,41.02
2023-05-23T09:52:05.862Z,40.94
2023-05-23T09:54:32.459Z,40.87
2023-05-23T09:57:01.176Z,40.81
2023-05-23T09:59:52.677Z,40.83
2023-05-23T10:02:50.440Z,40.83
2023-05-23T10:05:32.790Z,40.86
2023-05-23T10:08:01.880Z,40.67
2023-05-23T10:10:31.905Z,40.78
2023-05-23T10:13:02.076Z,40.79
2023-05-23T10:15:33.278Z,40.69
2023-05-23T10:18:21.557Z,40.74
2023-05-23T10:20:49.710Z,40.76
2023-05-23T10:23:16.912Z,40.54
2023-05-23T10:25:44.477Z,40.57
2023-05-23T10:28:13.016Z,40.70
2023-05-23T10:30:40.952Z,40.65
2023-05-23T10:33:09.262Z,40.60
2023-05-23T10:36:05.062Z,40.74
2023-05-23T10:38:34.918Z,40.50
2023-05-23T10:41:11.069Z,40.54
2023-05-23T10:43:57.239Z,40.50
2023-05-23T10:46:24.041Z,40.35
2023-05-23T10:48:57.198Z,40.65
2023-05-23T10:51:24.885Z,40.49
2023-05-23T10:53:55.023Z,40.48
2023-05-23T10:56:23.917Z,40.34
2023-05-23T10:58:54.944Z,40.58
2023-05-23T11:01:22.168Z,40.34
2023-05-23T11:03:50.411Z,40.38
2023-05-23T11:06:38.889Z,40.34
2023-05-23T11:09:19.775Z,40.35
2023-05-23T11:12:05.985Z,40.41
2023-05-23T11:14:32.755Z,40.52
2023-05-23T11:17:30.269Z,40.21
2023-05-23T11:20:08.007Z,40.23
2023-05-23T11:22:35.521Z,40.29
2023-05-23T11:25:07.679Z,40.24
2023-05-23T11:27:39.182Z,40.18
2023-05-23T11:30:15.821Z,40.28
2023-05-23T11:32:49.858Z,40.47
2023-05-23T11:35:17.210Z,40.22
2023-05-23T11:37:44.210Z,40.28
2023-05-23T11:40:36.922Z,40.20
2023-05-23T11:43:06.385Z,40.25
2023-05-23T11:45:34.403Z,40.25
2023-05-23T11:48:12.101Z,40.10
2023-05-23T11:50:52.410Z,40.36
2023-05-23T11:53:21.911Z,40.34
2023-05-23T11:55:53.650Z,40.39
2023-05-23T11:58:27.249Z,40.20
2023-05-23T12:01:06.424Z,40.17
2023-05-23T12:03:34.522Z,40.38
2023-05-23T12:06:02.230Z,40.29
2023-05-23T12:08:28.750Z,40.40
2023-05-23T12:10:59.989Z,40.05
2023-05-23T12:13:29.587Z,40.00
2023-05-23T12:15:56.977Z,39.93
2023-05-23T12:18:24.080Z,40.13
2023-05-23T12:20:53.772Z,40.37
2023-05-23T12:23:24.756Z,40.21
2023-05-23T12:25:55.684Z,39.75
2023-05-23T12:28:38.131Z,39.93
2023-05-23T12:31:18.172Z,40.31
2023-05-23T12:33:46.238Z,40.20
2023-05-23T12:36:12.989Z,40.03
2023-05-23T12:38:41.141Z,40.21
2023-05-23T12:41:11.999Z,40.19
2023-05-23T12:43:40.309Z,40.21
2023-05-23T12:46:08.006Z,40.26
2023-05-23T12:48:34.665Z,39.94
2023-05-23T12:51:03.010Z,39.92
2023-05-23T12:53:29.849Z,40.00
2023-05-23T12:55:56.392Z,40.13
2023-05-23T12:58:23.581Z,39.84
2023-05-23T13:00:50.705Z,39.82
2023-05-23T13:03:18.153Z,39.88
2023-05-23T13:05:44.905Z,39.91
2023-05-23T13:08:12.412Z,39.85
2023-05-23T13:10:39.585Z,39.83
2023-05-23T13:13:06.129Z,39.92
2023-05-23T13:15:32.730Z,39.72
2023-05-23T13:18:00.186Z,39.82
2023-05-23T13:20:30.191Z,39.61
2023-05-23T13:22:57.838Z,39.61
2023-05-23T13:25:26.257Z,39.65
2023-05-23T13:27:53.731Z,39.54
2023-05-23T13:30:21.198Z,39.53
2023-05-23T13:32:49.508Z,39.40
2023-05-23T13:35:17.524Z,39.35
2023-05-23T13:37:44.052Z,39.31
2023-05-23T13:40:17.276Z,39.60
2023-05-23T13:42:43.986Z,39.48
2023-05-23T13:45:10.725Z,39.35
2023-05-23T13:47:37.789Z,39.11
2023-05-23T13:50:05.393Z,39.22
2023-05-23T13:52:31.889Z,39.10
2023-05-23T13:54:59.804Z,38.96
2023-05-23T13:57:26.512Z,39.41
2023-05-23T13:59:53.217Z,39.47
2023-05-23T14:02:19.853Z,39.41
2023-05-23T14:04:46.369Z,39.42
2023-05-23T14:07:12.895Z,39.48
2023-05-23T14:09:39.511Z,39.20
2023-05-23T14:12:06.469Z,39.15
2023-05-23T14:14:33.327Z,39.20
2023-05-23T14:16:59.963Z,39.22
2023-05-23T14:19:26.503Z,39.16
2023-05-23T14:21:53.150Z,39.20
2023-05-23T14:24:19.667Z,38.79
2023-05-23T14:26:46.937Z,39.09
2023-05-23T14:29:13.591Z,39.20
2023-05-23T14:31:40.139Z,39.22
2023-05-23T14:34:07.007Z,39.07
2023-05-23T14:36:33.519Z,39.17
2023-05-23T14:39:01.323Z,38.98
2023-05-23T14:41:28.919Z,39.09
2023-05-23T14:43:55.581Z,38.89
2023-05-23T14:46:22.199Z,39.01
2023-05-23T14:48:48.783Z,38.96
2023-05-23T14:51:26.743Z,38.98
2023-05-23T14:54:01.819Z,39.30
2023-05-23T14:56:28.484Z,38.98
2023-05-23T14:58:57.462Z,38.96
2023-05-23T15:01:24.191Z,39.03
2023-05-23T15:03:51.245Z,38.91
2023-05-23T15:06:17.821Z,38.91
2023-05-23T15:08:44.388Z,38.96
2023-05-23T15:11:10.980Z,39.17
2023-05-23T15:13:37.645Z,38.72
2023-05-23T15:16:04.393Z,38.84
2023-05-23T15:18:40.768Z,38.72
2023-05-23T15:21:08.246Z,38.70
2023-05-23T15:23:34.763Z,38.86
2023-05-23T15:26:01.305Z,38.58
2023-05-23T15:28:27.830Z,38.88
2023-05-23T15:30:54.520Z,38.91
2023-05-23T15:33:21.961Z,38.78
2023-05-23T15:35:48.570Z,38.86
2023-05-23T15:38:17.145Z,38.55
2023-05-23T15:40:48.654Z,38.50
2023-05-23T15:43:15.299Z,38.77
2023-05-23T15:45:41.907Z,38.50
2023-05-23T15:48:08.635Z,38.53
2023-05-23T15:50:35.533Z,38.73
2023-05-23T15:53:02.082Z,38.57
2023-05-23T15:55:28.675Z,38.71
2023-05-23T15:57:55.242Z,38.48
2023-05-23T16:00:22.192Z,38.44
2023-05-23T16:02:48.772Z,38.44
2023-05-23T16:05:15.402Z,38.70
2023-05-23T16:07:41.951Z,38.57
2023-05-23T16:10:08.942Z,38.70
2023-05-23T16:12:35.498Z,38.64
2023-05-23T16:15:02.256Z,38.56
2023-05-23T16:17:28.774Z,38.57
2023-05-23T16:19:55.355Z,38.47
2023-05-23T16:22:21.856Z,38.20
2023-05-23T16:24:48.494Z,38.50
2023-05-23T16:27:15.074Z,38.50
2023-05-23T16:29:41.664Z,38.39
2023-05-23T16:32:08.340Z,38.54
2023-05-23T16:34:35.295Z,38.60
2023-05-23T16:37:01.840Z,38.48
2023-05-23T16:39:28.415Z,38.49
2023-05-23T16:41:54.872Z,38.47
2023-05-23T16:44:21.469Z,38.26
2023-05-23T16:46:48.351Z,38.52
2023-05-23T16:49:14.965Z,38.74
2023-05-23T16:51:41.467Z,38.19
2023-05-23T16:54:08.670Z,38.17
2023-05-23T16:56:35.389Z,38.42
2023-05-23T16:59:01.888Z,38.40
2023-05-23T17:01:29.536Z,38.26
2023-05-23T17:03:56.887Z,38.11
2023-05-23T17:06:23.640Z,38.42
2023-05-23T17:08:50.642Z,38.25
2023-05-23T17:11:17.299Z,38.20
2023-05-23T17:13:43.824Z,38.30
2023-05-23T17:16:10.568Z,38.25
2023-05-23T17:18:37.222Z,38.29
2023-05-23T17:21:03.842Z,38.21
2023-05-23T17:23:30.524Z,38.06
2023-05-23T17:25:57.092Z,37.93
2023-05-23T17:28:23.772Z,38.03
2023-05-23T17:30:51.708Z,38.19
2023-05-23T17:33:18.535Z,37.62
2023-05-23T17:35:45.096Z,37.45
2023-05-23T17:38:11.830Z,36.86
2023-05-23T17:40:38.419Z,36.84
2023-05-23T17:43:05.056Z,36.45
2023-05-23T17:45:31.812Z,36.36
2023-05-23T17:47:58.853Z,36.34
2023-05-23T17:50:25.533Z,36.13
2023-05-23T17:52:52.266Z,35.81
2023-05-23T17:55:18.884Z,35.87
2023-05-23T17:57:45.547Z,35.96
2023-05-23T18:00:12.538Z,36.17
2023-05-23T18:02:41.844Z,35.83
2023-05-23T18:05:09.345Z,36.09
2023-05-23T18:07:36.191Z,35.88
2023-05-23T18:10:03.393Z,36.16
2023-05-23T18:12:30.353Z,36.17
2023-05-23T18:14:56.971Z,36.21
2023-05-23T18:17:24.786Z,36.29
2023-05-23T18:19:51.431Z,36.41
2023-05-23T18:22:19.815Z,36.39
2023-05-23T18:24:46.422Z,36.23
2023-05-23T18:27:12.990Z,36.58
2023-05-23T18:29:39.761Z,36.23
2023-05-23T18:32:06.506Z,36.78
2023-05-23T18:34:32.994Z,36.75
2023-05-23T18:36:59.660Z,36.69
2023-05-23T18:39:26.391Z,36.73
2023-05-23T18:41:52.957Z,37.00
2023-05-23T18:44:20.950Z,36.67
2023-05-23T18:46:47.964Z,36.96
2023-05-23T18:49:14.675Z,37.15
2023-05-23T18:51:42.057Z,36.93
2023-05-23T18:54:08.665Z,36.95
2023-05-23T18:56:35.690Z,37.06
2023-05-23T18:59:02.339Z,37.01
2023-05-23T19:01:29.049Z,36.98
2023-05-23T19:03:56.936Z,37.07
2023-05-23T19:06:23.569Z,37.17
2023-05-23T19:08:50.091Z,37.09
2023-05-23T19:11:16.600Z,37.30
2023-05-23T19:13:43.115Z,36.98
2023-05-23T19:16:10.048Z,37.17
2023-05-23T19:18:37.443Z,37.24
2023-05-23T19:21:04.069Z,37.29
2023-05-23T19:23:30.657Z,37.40
2023-05-23T19:25:57.199Z,37.09
2023-05-23T19:28:23.777Z,37.56
2023-05-23T19:30:50.342Z,37.36
2023-05-23T19:33:18.000Z,37.52
2023-05-23T19:35:44.902Z,37.52
2023-05-23T19:38:11.687Z,37.39
2023-05-23T19:40:38.393Z,37.64
2023-05-23T19:43:05.052Z,37.60
2023-05-23T19:45:31.638Z,37.53
2023-05-23T19:47:58.324Z,37.73
2023-05-23T19:50:25.042Z,37.66
2023-05-23T19:52:51.592Z,37.85
2023-05-23T19:55:18.186Z,37.56
2023-05-23T19:57:45.275Z,37.58
2023-05-23T20:00:14.730Z,37.57
2023-05-23T20:02:41.579Z,37.62
2023-05-23T20:05:08.619Z,37.57
2023-05-23T20:07:36.480Z,37.78
2023-05-23T20:10:03.986Z,37.71
2023-05-23T20:12:30.530Z,37.79
2023-05-23T20:14:57.473Z,37.77
2023-05-23T20:17:24.039Z,37.25
2023-05-23T20:19:50.703Z,37.62
2023-05-23T20:22:17.572Z,37.85
2023-05-23T20:24:44.119Z,37.88
2023-05-23T20:27:10.781Z,37.67
2023-05-23T20:29:37.602Z,37.64
2023-05-23T20:32:04.329Z,37.86
2023-05-23T20:34:31.760Z,37.88
2023-05-23T20:36:58.324Z,38.01
2023-05-23T20:39:24.879Z,37.90
2023-05-23T20:41:51.742Z,37.71
2023-05-23T20:44:18.496Z,38.15
2023-05-23T20:46:45.433Z,37.65
2023-05-23T20:49:12.041Z,37.96
2023-05-23T20:51:39.196Z,38.15
2023-05-23T20:54:06.312Z,37.82
2023-05-23T20:56:33.282Z,38.00
2023-05-23T20:59:03.232Z,37.93
2023-05-23T21:01:30.474Z,37.78
2023-05-23T21:03:57.269Z,38.09
2023-05-23T21:06:23.861Z,37.96
2023-05-23T21:08:50.590Z,37.72
2023-05-23T21:11:17.184Z,37.76
2023-05-23T21:13:43.839Z,37.93
2023-05-23T21:16:14.306Z,38.04
2023-05-23T21:18:44.613Z,37.91
2023-05-23T21:21:11.210Z,37.98
2023-05-23T21:23:38.012Z,37.77
2023-05-23T21:26:04.594Z,37.68
2023-05-23T21:28:31.074Z,37.66
2023-05-23T21:30:58.199Z,37.89
2023-05-23T21:33:24.793Z,38.00
2023-05-23T21:35:51.386Z,37.89
2023-05-23T21:38:17.971Z,37.91
2023-05-23T21:40:44.753Z,37.54
2023-05-23T21:43:11.499Z,38.03
2023-05-23T21:45:37.999Z,37.94
2023-05-23T21:48:04.702Z,37.85
2023-05-23T21:50:31.258Z,37.83
2023-05-23T21:52:57.864Z,37.64
2023-05-23T21:55:24.487Z,37.82
2023-05-23T21:57:51.006Z,37.73
2023-05-23T22:00:19.144Z,37.89
2023-05-23T22:02:46.081Z,37.97
2023-05-23T22:05:13.272Z,37.66
2023-05-23T22:07:39.929Z,37.86
2023-05-23T22:10:07.312Z,37.78
2023-05-23T22:12:33.826Z,37.92
2023-05-23T22:15:00.363Z,37.71
2023-05-23T22:17:26.914Z,37.73
2023-05-23T22:19:55.672Z,37.88
2023-05-23T22:22:22.496Z,37.88
2023-05-23T22:24:49.037Z,37.82
2023-05-23T22:27:15.942Z,37.91
2023-05-23T22:29:42.592Z,37.68
2023-05-23T22:32:09.145Z,38.20
2023-05-23T22:34:36.485Z,37.70
2023-05-23T22:37:03.231Z,37.72
2023-05-23T22:39:29.757Z,37.57
2023-05-23T22:41:56.466Z,37.62
2023-05-23T22:44:23.052Z,37.87
2023-05-23T22:46:49.671Z,37.84
2023-05-23T22:49:16.238Z,37.43
2023-05-23T22:51:44.690Z,37.59
2023-05-23T22:54:11.475Z,37.77
2023-05-23T22:56:38.006Z,38.01
2023-05-23T22:59:04.535Z,37.64
2023-05-23T23:01:31.437Z,37.76
2023-05-23T23:03:58.053Z,37.61
2023-05-23T23:06:24.597Z,38.11
2023-05-23T23:08:51.776Z,37.82
2023-05-23T23:11:18.386Z,37.68
2023-05-23T23:13:44.995Z,37.79
2023-05-23T23:16:11.991Z,37.68
2023-05-23T23:18:38.571Z,37.72
2023-05-23T23:21:05.848Z,37.71
2023-05-23T23:23:32.661Z,37.81
2023-05-23T23:25:59.514Z,37.40
2023-05-23T23:28:26.148Z,37.63
2023-05-23T23:30:52.744Z,37.78
2023-05-23T23:33:19.295Z,37.73
2023-05-23T23:35:48.446Z,37.47
2023-05-23T23:38:16.261Z,37.74
2023-05-23T23:40:45.225Z,37.50
2023-05-23T23:43:12.773Z,37.82
2023-05-23T23:45:39.370Z,37.68
2023-05-23T23:48:05.914Z,37.62
2023-05-23T23:50:32.507Z,37.62
2023-05-23T23:52:59.329Z,37.51
2023-05-23T23:55:25.949Z,37.64
2023-05-23T23:57:52.919Z,37.50
